createdAt,value
2024-02-14T00:03:36.157Z,4.9
2024-02-14T00:09:15.267Z,4.9
2024-02-14T00:14:23.112Z,4.9
2024-02-14T00:19:47.328Z,4.9
2024-02-14T00:25:10.928Z,4.9
2024-02-14T00:30:51.033Z,4.9
2024-02-14T00:36:16.785Z,4.9
2024-02-14T00:41:39.929Z,4.9
2024-02-14T00:47:03.681Z,4.9
2024-02-14T00:52:44.880Z,4.8
2024-02-14T00:58:23.781Z,4.8
2024-02-14T01:04:03.212Z,4.8
2024-02-14T01:09:43.057Z,4.8
2024-02-14T01:15:22.599Z,4.8
2024-02-14T01:20:47.004Z,4.8
2024-02-14T08:08:16.697Z,10.1
2024-02-14T08:13:57.798Z,10.1
2024-02-14T08:19:26.385Z,10.3
2024-02-14T08:24:54.546Z,10.3
2024-02-14T08:30:34.136Z,10.4
2024-02-14T08:36:21.608Z,10.4
2024-02-14T08:42:00.431Z,10.3
2024-02-14T08:47:41.036Z,10.3
2024-02-14T08:53:27.810Z,10.2
2024-02-14T08:59:09.274Z,10.2
2024-02-14T09:05:04.454Z,10.1
2024-02-14T09:10:44.008Z,10.1
2024-02-14T09:16:23.830Z,10.1
2024-02-14T09:22:05.097Z,10.2
2024-02-14T09:27:44.181Z,10.4
2024-02-14T09:33:21.793Z,10.8
2024-02-14T09:39:03.597Z,11.1
2024-02-14T09:44:42.780Z,11.2
2024-02-14T09:50:27.734Z,11.3
2024-02-14T09:56:07.295Z,11.4
2024-02-14T10:01:47.408Z,11.6
2024-02-14T10:07:28.029Z,11.6
2024-02-14T10:13:04.897Z,11.8
2024-02-14T10:18:46.444Z,11.8
2024-02-14T10:24:27.192Z,12
2024-02-14T10:30:12.007Z,12.3
2024-02-14T10:36:05.838Z,12.6
2024-02-14T10:41:47.856Z,12.8
2024-02-14T10:47:27.424Z,12.8
2024-02-14T10:53:07.721Z,12.8
2024-02-14T10:58:46.430Z,12.7
2024-02-14T11:04:12.486Z,12.5
2024-02-14T11:09:53.491Z,12.3
2024-02-14T11:15:31.848Z,12
2024-02-14T11:21:13.751Z,11.8
2024-02-14T11:26:53.653Z,11.4
2024-02-14T11:32:47.632Z,11.2
2024-02-14T11:38:28.829Z,10.9
2024-02-14T11:44:10.782Z,10.7
2024-02-14T11:49:53.224Z,10.5
2024-02-14T11:55:32.354Z,10.3
2024-02-14T12:01:11.651Z,10.1
2024-02-14T12:06:53.131Z,9.9
2024-02-14T12:12:33.298Z,9.8
2024-02-14T12:18:13.296Z,9.7
2024-02-14T12:23:52.517Z,9.6
2024-02-14T12:29:32.243Z,9.4
2024-02-14T12:35:20.743Z,9.4
2024-02-14T12:40:58.841Z,9.4
2024-02-14T12:46:38.180Z,9.7
2024-02-14T12:52:18.258Z,9.9
2024-02-14T12:57:56.461Z,9.9
2024-02-14T13:03:36.488Z,9.9
2024-02-14T13:09:16.928Z,9.8
2024-02-14T13:14:55.798Z,9.7
2024-02-14T13:20:37.566Z,9.6
2024-02-14T13:26:16.149Z,9.4
2024-02-14T13:31:38.913Z,9.3
2024-02-14T13:37:20.153Z,9.3
2024-02-14T13:42:58.605Z,9.2
2024-02-14T13:48:40.748Z,9.1
2024-02-14T13:54:22.317Z,9.1
2024-02-14T14:00:02.287Z,9.1
2024-02-14T14:05:39.873Z,9
2024-02-14T14:11:36.418Z,8.9
2024-02-14T14:17:17.760Z,8.9
2024-02-14T14:22:58.794Z,8.9
2024-02-14T14:28:43.501Z,8.8
2024-02-14T14:34:28.142Z,8.8
2024-02-14T14:40:09.493Z,8.7
2024-02-14T14:45:33.859Z,8.6
2024-02-14T14:51:16.603Z,8.4
2024-02-14T14:56:59.260Z,8.4
2024-02-14T15:02:41.782Z,8.3
2024-02-14T15:08:06.311Z,8.1
2024-02-14T15:13:47.066Z,8
2024-02-14T15:19:29.390Z,7.9
2024-02-14T15:25:11.869Z,7.8
2024-02-14T15:30:50.988Z,7.6
2024-02-14T15:36:31.736Z,7.5
2024-02-14T15:42:10.629Z,7.4
2024-02-14T15:47:33.479Z,7.3
2024-02-14T15:52:58.613Z,7.2
2024-02-14T15:58:37.757Z,7.1
2024-02-14T16:04:16.887Z,6.9
2024-02-14T16:09:56.742Z,6.8
2024-02-14T16:15:36.177Z,6.8
2024-02-14T16:21:18.122Z,6.6
2024-02-14T16:27:11.243Z,6.5
2024-02-14T16:32:49.660Z,6.4
2024-02-14T16:38:30.048Z,6.3
2024-02-14T16:44:23.985Z,6.2
2024-02-14T16:50:06.729Z,6.1
2024-02-14T16:55:49.077Z,6
2024-02-14T17:07:09.731Z,5.8
2024-02-14T17:12:50.705Z,5.8
2024-02-14T17:18:18.121Z,5.6
2024-02-14T17:24:07.267Z,5.6
2024-02-14T17:29:45.755Z,5.5
2024-02-14T17:35:39.174Z,5.4
2024-02-14T17:41:18.183Z,5.4
2024-02-14T17:46:41.110Z,5.3
2024-02-14T17:52:21.180Z,5.3
2024-02-14T17:58:00.113Z,5.2
2024-02-14T18:03:39.136Z,5.1
2024-02-14T18:09:05.938Z,5.1
2024-02-14T18:14:46.916Z,5
2024-02-14T18:20:10.636Z,5
2024-02-14T18:25:51.353Z,4.9
2024-02-14T18:31:29.789Z,4.9
2024-02-14T18:36:56.710Z,4.8
2024-02-14T18:42:36.160Z,4.8
2024-02-14T18:48:14.483Z,4.8
2024-02-14T18:53:53.995Z,4.7
2024-02-14T18:59:32.763Z,4.6
2024-02-14T19:05:13.764Z,4.6
2024-02-14T19:10:52.706Z,4.6
2024-02-14T19:16:44.246Z,4.5
2024-02-14T19:22:24.832Z,4.5
2024-02-14T19:28:03.621Z,4.4
